Time,TemperatureF,DewpointF,PressureIn,WindDirection,WindDirectionDegrees,WindSpeedMPH,WindSpeedGustMPH,Humidity,HourlyPrecipIn,Conditions,Clouds,dailyrainin,SoftwareType,DateUTC
2014-01-08 00:08:00,47.6,46.0,30.21,NNE,22,0.0,2.0,94,0.00,,,0.00,weatherlink.com 1.10,2014-01-08 08:08:00,
2014-01-08 00:23:00,48.0,47.0,30.20,NNE,23,0.0,3.0,95,0.00,,,0.00,weatherlink.com 1.10,2014-01-08 08:23:00,
2014-01-08 00:38:00,47.4,46.0,30.20,NNE,27,0.0,4.0,94,0.00,,,0.00,weatherlink.com 1.10,2014-01-08 08:38:00,
2014-01-08 00:53:00,47.0,45.0,30.21,North,11,0.0,1.0,94,0.00,,,0.00,weatherlink.com 1.10,2014-01-08 08:53:00,
2014-01-08 01:08:00,47.6,46.0,30.20,North,11,0.0,0.0,95,0.00,,,0.00,weatherlink.com 1.10,2014-01-08 09:08:00,
2014-01-08 01:23:00,48.0,47.0,30.20,North,11,0.0,0.0,95,0.00,,,0.00,weatherlink.com 1.10,2014-01-08 09:23:00,
2014-01-08 01:38:00,48.1,47.0,30.21,North,11,0.0,1.0,95,0.00,,,0.00,weatherlink.com 1.10,2014-01-08 09:38:00,
2014-01-08 01:53:00,48.1,47.0,30.21,North,11,0.0,1.0,95,0.00,,,0.00,weatherlink.com 1.10,2014-01-08 09:53:00,
2014-01-08 02:08:00,48.3,47.0,30.22,North,11,0.0,0.0,95,0.00,,,0.00,weatherlink.com 1.10,2014-01-08 10:08:00,
2014-01-08 02:23:00,48.5,47.0,30.22,North,11,0.0,0.0,95,0.00,,,0.00,weatherlink.com 1.10,2014-01-08 10:23:00,
2014-01-08 02:38:00,48.6,47.0,30.22,North,11,0.0,0.0,95,0.00,,,0.00,weatherlink.com 1.10,2014-01-08 10:38:00,
2014-01-08 02:53:00,48.7,47.0,30.21,North,11,0.0,1.0,95,0.00,,,0.00,weatherlink.com 1.10,2014-01-08 10:53:00,
2014-01-08 03:08:00,48.6,47.0,30.20,North,11,0.0,1.0,95,0.00,,,0.00,weatherlink.com 1.10,2014-01-08 11:08:00,
2014-01-08 03:23:00,48.2,47.0,30.20,North,11,0.0,0.0,95,0.00,,,0.00,weatherlink.com 1.10,2014-01-08 11:23:00,
2014-01-08 03:38:00,48.1,47.0,30.20,SSE,159,0.0,2.0,95,0.00,,,0.00,weatherlink.com 1.10,2014-01-08 11:38:00,
2014-01-08 03:53:00,48.0,47.0,30.20,NNE,18,0.0,2.0,95,0.00,,,0.00,weatherlink.com 1.10,2014-01-08 11:53:00,
2014-01-08 04:08:00,47.4,46.0,30.20,NNE,26,0.0,3.0,95,0.00,,,0.00,weatherlink.com 1.10,2014-01-08 12:08:00,
2014-01-08 04:23:00,47.0,46.0,30.21,NE,35,0.0,2.0,95,0.00,,,0.00,weatherlink.com 1.10,2014-01-08 12:23:00,
2014-01-08 04:38:00,46.5,45.0,30.21,NNE,21,3.0,4.0,95,0.00,,,0.00,weatherlink.com 1.10,2014-01-08 12:38:00,
2014-01-08 04:53:00,46.3,45.0,30.21,NNE,32,0.0,2.0,95,0.00,,,0.00,weatherlink.com 1.10,2014-01-08 12:53:00,
2014-01-08 05:08:00,46.9,46.0,30.21,NNE,26,1.0,5.0,96,0.00,,,0.00,weatherlink.com 1.10,2014-01-08 13:08:00,
2014-01-08 05:23:00,47.1,46.0,30.21,NE,36,0.0,5.0,95,0.00,,,0.00,weatherlink.com 1.10,2014-01-08 13:23:00,
2014-01-08 05:38:00,46.7,46.0,30.21,NNE,32,0.0,5.0,96,0.00,,,0.00,weatherlink.com 1.10,2014-01-08 13:38:00,
2014-01-08 05:54:00,47.2,46.0,30.20,NNE,17,0.0,1.0,96,0.00,,,0.00,weatherlink.com 1.10,2014-01-08 13:54:00,
2014-01-08 06:09:00,47.0,46.0,30.20,North,360,0.0,0.0,96,0.00,,,0.00,weatherlink.com 1.10,2014-01-08 14:09:00,
2014-01-08 06:24:00,46.3,45.0,30.20,NNE,22,1.0,2.0,95,0.00,,,0.00,weatherlink.com 1.10,2014-01-08 14:24:00,
2014-01-08 06:39:00,46.1,45.0,30.21,NNE,24,2.0,3.0,96,0.00,,,0.00,weatherlink.com 1.10,2014-01-08 14:39:00,
2014-01-08 06:54:00,45.6,45.0,30.20,NNE,24,0.0,3.0,96,0.00,,,0.00,weatherlink.com 1.10,2014-01-08 14:54:00,
2014-01-08 07:09:00,45.3,44.0,30.20,NNE,15,0.0,2.0,96,0.00,,,0.00,weatherlink.com 1.10,2014-01-08 15:09:00,
2014-01-08 07:24:00,45.4,44.0,30.21,North,9,0.0,3.0,96,0.00,,,0.00,weatherlink.com 1.10,2014-01-08 15:24:00,
2014-01-08 07:39:00,45.8,45.0,30.21,NNE,17,0.0,0.0,96,0.00,,,0.00,weatherlink.com 1.10,2014-01-08 15:39:00,
2014-01-08 07:54:00,44.5,44.0,30.21,NNE,28,1.0,4.0,96,0.00,,,0.00,weatherlink.com 1.10,2014-01-08 15:54:00,
2014-01-08 08:09:00,44.8,44.0,30.22,NNE,29,0.0,4.0,96,0.00,,,0.00,weatherlink.com 1.10,2014-01-08 16:09:00,
2014-01-08 08:24:00,45.7,45.0,30.22,NNE,24,0.0,3.0,96,0.00,,,0.00,weatherlink.com 1.10,2014-01-08 16:24:00,
2014-01-08 08:39:00,46.1,45.0,30.22,NNE,14,0.0,1.0,96,0.00,,,0.00,weatherlink.com 1.10,2014-01-08 16:39:00,
2014-01-08 08:54:00,45.7,45.0,30.23,NNE,22,1.0,4.0,96,0.00,,,0.00,weatherlink.com 1.10,2014-01-08 16:54:00,
2014-01-08 09:09:00,46.4,45.0,30.23,NNE,27,4.0,4.0,96,0.00,,,0.00,weatherlink.com 1.10,2014-01-08 17:09:00,
2014-01-08 09:24:00,46.5,46.0,30.23,NNE,32,0.0,6.0,96,0.00,,,0.00,weatherlink.com 1.10,2014-01-08 17:24:00,
2014-01-08 09:39:00,47.2,46.0,30.24,North,10,0.0,4.0,96,0.00,,,0.00,weatherlink.com 1.10,2014-01-08 17:39:00,
2014-01-08 09:54:00,48.7,48.0,30.25,NNE,15,0.0,2.0,96,0.00,,,0.00,weatherlink.com 1.10,2014-01-08 17:54:00,
2014-01-08 10:09:00,51.0,50.0,30.24,SSW,196,2.0,3.0,96,0.00,,,0.00,weatherlink.com 1.10,2014-01-08 18:09:00,
2014-01-08 10:24:00,52.8,52.0,30.25,South,175,3.0,6.0,95,0.00,,,0.00,weatherlink.com 1.10,2014-01-08 18:24:00,
2014-01-08 10:39:00,51.5,50.0,30.25,SSW,196,2.0,5.0,95,0.00,,,0.00,weatherlink.com 1.10,2014-01-08 18:39:00,
2014-01-08 10:54:00,53.7,52.0,30.25,South,181,1.0,5.0,94,0.00,,,0.00,weatherlink.com 1.10,2014-01-08 18:54:00,
2014-01-08 11:10:00,54.4,52.0,30.24,SW,215,2.0,5.0,92,0.00,,,0.00,weatherlink.com 1.10,2014-01-08 19:10:00,
2014-01-08 11:25:00,54.2,52.0,30.23,SSW,211,5.0,8.0,91,0.00,,,0.00,weatherlink.com 1.10,2014-01-08 19:25:00,
2014-01-08 11:40:00,53.6,51.0,30.23,SSW,213,6.0,7.0,91,0.00,,,0.00,weatherlink.com 1.10,2014-01-08 19:40:00,
2014-01-08 11:55:00,55.0,52.0,30.22,SW,228,2.0,8.0,90,0.00,,,0.00,weatherlink.com 1.10,2014-01-08 19:55:00,
2014-01-08 12:10:00,56.5,53.0,30.21,SSW,209,5.0,6.0,87,0.00,,,0.00,weatherlink.com 1.10,2014-01-08 20:10:00,
2014-01-08 12:25:00,55.3,52.0,30.20,SSW,205,4.0,6.0,88,0.00,,,0.00,weatherlink.com 1.10,2014-01-08 20:25:00,
2014-01-08 12:40:00,56.2,52.0,30.19,SW,225,4.0,7.0,87,0.00,,,0.00,weatherlink.com 1.10,2014-01-08 20:40:00,
2014-01-08 12:55:00,56.4,52.0,30.19,WSW,240,4.0,7.0,85,0.00,,,0.00,weatherlink.com 1.10,2014-01-08 20:55:00,
2014-01-08 13:10:00,56.4,52.0,30.18,SSW,194,3.0,8.0,85,0.00,,,0.00,weatherlink.com 1.10,2014-01-08 21:10:00,
2014-01-08 13:25:00,55.1,52.0,30.18,SW,222,4.0,7.0,88,0.00,,,0.00,weatherlink.com 1.10,2014-01-08 21:25:00,
2014-01-08 13:40:00,56.3,52.0,30.18,South,180,3.0,5.0,86,0.00,,,0.00,weatherlink.com 1.10,2014-01-08 21:40:00,
2014-01-08 13:55:00,55.7,52.0,30.17,SW,221,4.0,7.0,86,0.00,,,0.00,weatherlink.com 1.10,2014-01-08 21:55:00,
2014-01-08 14:10:00,55.8,52.0,30.17,SW,227,5.0,7.0,86,0.00,,,0.00,weatherlink.com 1.10,2014-01-08 22:10:00,
2014-01-08 14:25:00,55.8,52.0,30.17,WSW,257,3.0,6.0,87,0.00,,,0.00,weatherlink.com 1.10,2014-01-08 22:25:00,
2014-01-08 14:40:00,57.7,54.0,30.18,SSE,160,4.0,5.0,86,0.00,,,0.00,weatherlink.com 1.10,2014-01-08 22:40:00,
2014-01-08 15:10:00,58.8,53.0,30.19,SSW,209,3.0,6.0,80,0.00,,,0.00,weatherlink.com 1.10,2014-01-08 23:10:00,
2014-01-08 15:25:00,60.2,53.0,30.18,WNW,294,0.0,6.0,78,0.00,,,0.00,weatherlink.com 1.10,2014-01-08 23:25:00,
2014-01-08 15:40:00,57.4,51.0,30.18,SSW,197,3.0,7.0,79,0.00,,,0.00,weatherlink.com 1.10,2014-01-08 23:40:00,
2014-01-08 15:55:00,57.1,52.0,30.19,SSW,196,3.0,5.0,83,0.00,,,0.00,weatherlink.com 1.10,2014-01-08 23:55:00,
2014-01-08 16:10:00,57.0,51.0,30.19,SSW,202,1.0,5.0,81,0.00,,,0.00,weatherlink.com 1.10,2014-01-09 00:10:00,
2014-01-08 16:25:00,55.7,51.0,30.20,SSE,161,0.0,5.0,83,0.00,,,0.00,weatherlink.com 1.10,2014-01-09 00:25:00,
2014-01-08 16:40:00,55.0,50.0,30.20,NE,41,0.0,5.0,83,0.00,,,0.00,weatherlink.com 1.10,2014-01-09 00:40:00,
2014-01-08 16:55:00,54.9,49.0,30.20,NW,326,0.0,3.0,81,0.00,,,0.00,weatherlink.com 1.10,2014-01-09 00:55:00,
2014-01-08 17:10:00,53.7,48.0,30.20,NNE,19,0.0,1.0,81,0.00,,,0.00,weatherlink.com 1.10,2014-01-09 01:10:00,
2014-01-08 17:25:00,52.5,48.0,30.21,NE,41,0.0,1.0,83,0.00,,,0.00,weatherlink.com 1.10,2014-01-09 01:25:00,
2014-01-08 17:40:00,51.9,48.0,30.21,NE,36,0.0,1.0,85,0.00,,,0.00,weatherlink.com 1.10,2014-01-09 01:40:00,
2014-01-08 19:10:00,50.2,47.0,30.23,NE,36,0.0,0.0,90,0.00,,,0.00,weatherlink.com 1.10,2014-01-09 03:10:00,
2014-01-08 19:25:00,49.9,47.0,30.23,NE,36,0.0,0.0,90,0.00,,,0.00,weatherlink.com 1.10,2014-01-09 03:25:00,
2014-01-08 19:40:00,49.8,47.0,30.23,NNE,28,0.0,1.0,91,0.00,,,0.00,weatherlink.com 1.10,2014-01-09 03:40:00,
2014-01-08 19:55:00,49.8,47.0,30.23,NNE,28,0.0,2.0,91,0.00,,,0.00,weatherlink.com 1.10,2014-01-09 03:55:00,
2014-01-08 20:10:00,49.6,47.0,30.23,NNE,23,0.0,4.0,91,0.00,,,0.00,weatherlink.com 1.10,2014-01-09 04:10:00,
2014-01-08 20:25:00,49.4,47.0,30.23,NNE,15,0.0,2.0,92,0.00,,,0.00,weatherlink.com 1.10,2014-01-09 04:25:00,
2014-01-08 20:40:00,49.0,47.0,30.22,NNE,19,0.0,2.0,92,0.00,,,0.00,weatherlink.com 1.10,2014-01-09 04:40:00,
2014-01-08 20:55:00,48.5,47.0,30.22,NNE,26,0.0,4.0,93,0.00,,,0.00,weatherlink.com 1.10,2014-01-09 04:55:00,
2014-01-08 21:10:00,47.9,46.0,30.21,NNE,21,0.0,2.0,93,0.00,,,0.00,weatherlink.com 1.10,2014-01-09 05:10:00,
2014-01-08 21:25:00,47.3,45.0,30.22,NNE,24,0.0,1.0,93,0.00,,,0.00,weatherlink.com 1.10,2014-01-09 05:25:00,
2014-01-08 21:40:00,46.9,45.0,30.23,NNE,31,0.0,2.0,93,0.00,,,0.00,weatherlink.com 1.10,2014-01-09 05:40:00,
2014-01-08 21:55:00,46.5,45.0,30.22,NNE,31,0.0,0.0,94,0.00,,,0.00,weatherlink.com 1.10,2014-01-09 05:55:00,
2014-01-08 22:10:00,46.6,45.0,30.23,NNE,26,0.0,1.0,94,0.00,,,0.00,weatherlink.com 1.10,2014-01-09 06:10:00,
2014-01-08 22:25:00,45.7,44.0,30.23,NNE,26,1.0,1.0,94,0.00,,,0.00,weatherlink.com 1.10,2014-01-09 06:25:00,
2014-01-08 22:40:00,46.0,44.0,30.23,NNE,24,0.0,3.0,94,0.00,,,0.00,weatherlink.com 1.10,2014-01-09 06:40:00,
2014-01-08 22:55:00,45.5,44.0,30.24,NNE,23,0.0,3.0,94,0.00,,,0.00,weatherlink.com 1.10,2014-01-09 06:55:00,
2014-01-08 23:10:00,45.3,44.0,30.24,NNE,26,2.0,2.0,94,0.00,,,0.00,weatherlink.com 1.10,2014-01-09 07:10:00,
2014-01-08 23:25:00,45.2,44.0,30.23,NNE,25,2.0,4.0,95,0.00,,,0.00,weatherlink.com 1.10,2014-01-09 07:25:00,
2014-01-08 23:40:00,45.1,44.0,30.24,NNE,24,0.0,3.0,95,0.00,,,0.00,weatherlink.com 1.10,2014-01-09 07:40:00,
2014-01-08 23:55:00,45.4,44.0,30.22,NNE,24,0.0,5.0,95,0.00,,,0.00,weatherlink.com 1.10,2014-01-09 07:55:00,